This demonstration page uses our WeatherBlox Daily Observations layout. Learn more.

39.01783, -85.05884

Hourly Observations for June 7, 2019

Temp ( °F °C ) Dew Point ( °F °C ) Humidity (%) Winds ( mph kmh ) Pressure ( in mb ) Visibility ( mi km ) Precip ( " mm )
12:17 am 00:17 Cloudy 75 23.9 67 19.4 76 76 ESE 7 11 29.85 1011 10 16.09344 0 0
12:52 am 00:52 Cloudy 73 22.8 68 20 84 84 ESE 5 7 29.83 1010 10 16.09344 0 0
1:04 am 01:04 Cloudy 74 23.3 67 19.4 79 79 ESE 5 7 29.83 1010 10 16.09344 0 0
1:52 am 01:52 Cloudy 74 23.3 64 17.8 71 71 ENE 8 13 29.8 1009 10 16.09344 0 0
2:52 am 02:52 Cloudy 72 22.2 64 17.8 76 76 NE 9 15 29.8 1009 10 16.09344 0 0
3:52 am 03:52 Cloudy 71 21.7 64 17.8 79 79 NE 9 15 29.8 1009 10 16.09344 0 0
4:52 am 04:52 Cloudy 70 21.1 63 17.2 79 79 NE 10 17 29.8 1009 9 14.484096 0 0
5:52 am 05:52 Cloudy 69 20.6 63 17.2 81 81 ENE 12 19 29.83 1010 9 14.484096 0 0
6:52 am 06:52 Cloudy 69 20.6 63 17.2 81 81 ENE 12 19 29.83 1010 8 12.874752 0 0
7:52 am 07:52 Cloudy 69 20.6 63 17.2 81 81 NE 12 19 29.83 1010 9 14.484096 0 0
8:52 am 08:52 Mostly Cloudy 70 21.1 62 16.7 76 76 ENE 14 22 29.83 1010 10 16.09344 0 0
9:52 am 09:52 Mostly Cloudy 72 22.2 63 17.2 73 73 ENE 18 30 29.83 1010 10 16.09344 0 0
10:52 am 10:52 Cloudy 73 22.8 63 17.2 71 71 ENE 13 20 29.83 1010 10 16.09344 0 0
11:52 am 11:52 Mostly Cloudy 75 23.9 64 17.8 69 69 NE 15 24 29.83 1010 10 16.09344 0 0
12:52 pm 12:52 Cloudy 76 24.4 63 17.2 64 64 ENE 12 19 29.83 1010 10 16.09344 0 0
1:52 pm 13:52 Cloudy 76 24.4 62 16.7 62 62 E 14 22 29.83 1010 10 16.09344 0 0
2:52 pm 14:52 Cloudy 77 25 62 16.7 60 60 ENE 13 20 29.83 1010 10 16.09344 0 0
3:52 pm 15:52 Cloudy 77 25 59 15 54 54 ENE 20 31 29.83 1010 10 16.09344 0 0
4:52 pm 16:52 Cloudy 77 25 59 15 54 54 ENE 14 22 29.8 1009 10 16.09344 0 0
5:52 pm 17:52 Cloudy 77 25 58 14.4 52 52 ENE 16 26 29.8 1009 10 16.09344 0 0
6:52 pm 18:52 Cloudy 77 25 58 14.4 52 52 NE 17 28 29.77 1008 10 16.09344 0 0
7:52 pm 19:52 Cloudy 76 24.4 59 15 56 56 ENE 16 26 29.8 1009 10 16.09344 0 0
8:52 pm 20:52 Cloudy with Light Rain 74 23.3 62 16.7 67 67 ENE 15 24 29.83 1010 10 16.09344 0.001 0.001
9:52 pm 21:52 Cloudy 74 23.3 61 16.1 64 64 NE 14 22 29.83 1010 10 16.09344 0.001 0.001
10:52 pm 22:52 Cloudy 74 23.3 62 16.7 67 67 ENE 15 24 29.83 1010 10 16.09344 0 0
11:52 pm 23:52 Cloudy 73 22.8 61 16.1 66 66 ENE 16 26 29.83 1010 10 16.09344 0.001 0.001

Powered by AerisWeather